x

9439040 - Astoria, Or (asto3) Weather Station

5:30 - Mon 27th Jun 2016 All times are PDT. -7 hours from GMT.

  • Wind
    3mph, 5mph gusts
  • Sea Temp 67°f
  • Luft Temp 57°f
  • Sea Pressure 1021.2mb
  • 9439040 - Astoria, Or
  • 9439040 - Astoria, Or

More Historic Weather Station data

Upgrade to MSW Pro to gain access to the past 30 days of data for over 8000 Wavebouys and Weather Stations around the globe.

Join Pro

Comparision Forecast

View Surf forecast
   
Mo 06/27 5:30 3 5 mph 1021.2mb 67f 57f
5:24 1 2 mph 1021.2mb 67f 57f
5:18 2
mph
1021.2mb 67f 57f
5:12  -  2 mph 1021.2mb 67f 57f
5:06 1 2 mph 1021.2mb 67f 57f
5:00 2
mph
1021.1mb 67f 57f
4:54 2 3 mph 1021mb 67f 57f
4:48 2 3 mph 1021mb 67f 57f
4:42 1 2 mph 1021mb 67f 57f
4:36 1 2 mph 1020.9mb 67f 56f
4:30 1 6 mph 1021mb 67f 56f
4:24 3 6 mph 1020.9mb 67f 56f
4:18 3 5 mph 1020.9mb 67f 56f
4:12 2
mph
1020.9mb 67f 56f
4:06 2 5 mph 1020.8mb 67f 56f
4:00 2 5 mph 1020.8mb 67f 56f
3:54 2 3 mph 1020.7mb 67f 57f
3:48 2 5 mph 1020.7mb 67f 57f
3:42 2 6 mph 1020.7mb 67f 57f
3:36 3 5 mph 1020.7mb 67f 57f
3:30 1 6 mph 1020.6mb 67f 57f
3:24 3 7 mph 1020.6mb 67f 57f
3:18 6 8 mph 1020.6mb 67f 57f
3:12 7 8 mph 1020.5mb 67f 57f
3:06 6 7 mph 1020.5mb 67f 57f
3:00 3 7 mph 1020.5mb 67f 57f
2:54 5 7 mph 1020.5mb 67f 57f
2:48 5 8 mph 1020.4mb 67f 57f
2:42 6 8 mph 1020.4mb 67f 57f
2:36 5 8 mph 1020.5mb 67f 57f
2:30 2 8 mph 1020.5mb 67f 57f
2:24 3 8 mph 1020.4mb 67f 57f
2:18 2 5 mph 1020.4mb 67f 57f
2:12 2 3 mph 1020.4mb 66f 57f
2:06 2 5 mph 1020.3mb 66f 57f
2:00 2 3 mph 1020.3mb 66f 58f
1:54 2 3 mph 1020.3mb 66f 58f
1:48 2
mph
1020.2mb 66f 58f
1:42 2 3 mph 1020.2mb 66f 58f
1:36 2
mph
1020.2mb 66f 58f
1:30 2 3 mph 1020.2mb 66f 58f
1:24 3 6 mph 1020.2mb 66f 59f
1:18 3 5 mph 1020.1mb 66f 59f
1:12 3
mph
1020.1mb 66f 59f
1:06 2 5 mph 1020.1mb 66f 59f
1:00 3 5 mph 1020.1mb 66f 59f
12:54 2 5 mph 1020.1mb 66f 59f
12:48 3 5 mph 1020.1mb 66f 59f
12:42 1 2 mph 1020.1mb 66f 59f
12:36 2 3 mph 1020mb 66f 59f
12:30 2 5 mph 1020mb 66f 59f
12:24 5 6 mph 1019.9mb 66f 59f
12:18 5 6 mph 1019.9mb 66f 59f
12:12 2 5 mph 1019.9mb 66f 60f
12:06 3 5 mph 1019.9mb 66f 60f
12:00 1 3 mph 1019.9mb 66f 60f
So 06/26 11:54 3 5 mph 1019.9mb 66f 60f
11:48 3 5 mph 1019.9mb 66f -
11:42 3 6 mph 1019.8mb 66f -
11:36 3 7 mph 1019.9mb 66f -
11:30 6 9 mph 1019.9mb 66f 61f
11:24 5 7 mph 1019.9mb 66f 62f
11:18 3 7 mph 1020mb 66f 61f
11:12 6 8 mph 1020mb 66f 61f
11:06 3 7 mph 1020.1mb 66f 61f
11:00 6 9 mph 1020mb 66f 61f
10:54 10 11 mph 1020.1mb 66f 61f
10:48 10 11 mph 1020.1mb - -
10:42 7 10 mph 1020.1mb - -
10:36 6 7 mph 1020.1mb - -
10:30 5 7 mph 1020.1mb 66f 62f
10:24 1 2 mph 1020.1mb 65f 62f
10:18 2 3 mph 1020mb 66f 63f
10:12 1 3 mph 1020mb 66f 63f
10:06 2 3 mph 1019.9mb 66f 63f
10:00 2 3 mph 1019.9mb 66f 64f
9:54  -  2 mph 1019.8mb 66f 65f
9:48  -  5 mph 1019.7mb 66f 66f
9:42 2 5 mph 1019.7mb 66f 65f
9:36 1 2 mph 1019.7mb 66f 65f
9:30 1 3 mph 1019.7mb 67f 65f
9:24  -  1 mph 1019.7mb 67f 67f
9:18 1
mph
1019.6mb 67f 66f
9:12 2 3 mph 1019.6mb 67f 66f
9:06 5 6 mph 1019.5mb 66f 66f
9:00 2 3 mph 1019.5mb 67f 67f
8:54  -  2 mph 1019.4mb 66f 68f
8:48  -  5 mph 1019.4mb 66f 68f
8:42 5 8 mph 1019.4mb 67f 67f
8:36 5 7 mph 1019.4mb 67f 68f
8:30 3 7 mph 1019.3mb 67f 70f
8:24 5 6 mph 1019.3mb 67f 70f
8:18 5 9 mph 1019.3mb 67f 69f
8:12 5 8 mph 1019.3mb 67f 70f
8:06 5 6 mph 1019.3mb 67f 71f
8:00  -  mph 1019.2mb 67f 72f
7:54  -  mph 1019.2mb 67f 73f
7:48  -  mph 1019.1mb 66f -
7:42  -  mph 1019.1mb 66f -
7:36  -  mph 1019.1mb 66f -
7:30  -  mph 1019mb 66f -
7:24  -  mph 1019mb 66f -
7:18 3 6 mph 1019mb 66f 71f
7:12 5 6 mph 1019mb 66f 72f
7:06 6 8 mph 1018.9mb 66f 72f
7:00  -  mph 1018.9mb 66f -
6:54  -  mph 1018.9mb 67f -
6:48  -  mph 1018.9mb 67f -
6:42  -  mph 1018.9mb 67f -
6:36  -  mph 1018.9mb 67f -
6:30  -  mph 1018.9mb 68f -
6:24  -  mph 1018.9mb 68f -
6:18 2 8 mph 1018.8mb 68f 73f
6:12 7 9 mph 1018.9mb 68f 72f
6:06 2 7 mph 1018.8mb 68f 73f
6:00  -  mph 1018.8mb 68f -
5:54  -  mph 1018.8mb 68f -
5:48  -  mph 1018.8mb 68f 73f
5:42  -  mph 1018.9mb 68f 72f
5:36  -  mph 1018.9mb 68f 72f
5:30  -  mph - 68f 73f
5:24  -  mph - 68f 74f
5:18  -  mph 1018.9mb 68f 73f
5:12  -  mph 1018.9mb 68f 73f
5:06  -  mph 1018.8mb 68f 73f
5:00  -  mph 1018.8mb 68f -
4:54  -  mph 1018.9mb 68f -
4:48  -  mph 1018.8mb - -
4:42  -  mph 1018.8mb - -
4:36  -  mph 1018.8mb - -
4:30 7 11 mph 1018.8mb - -
4:24 7 14 mph 1018.9mb - -
4:18  -  mph 1019mb 68f 69f
4:12  -  mph 1019mb 68f 69f
4:06  -  mph 1019mb 68f 69f
4:00 8 13 mph 1019mb 68f -
3:54 9 15 mph 1019.1mb 68f -
3:48  -  mph 1019mb 68f 70f
3:42  -  mph 1019mb 68f 70f
3:36  -  mph 1019mb 68f 70f
3:30  -  mph 1019mb 68f 70f
3:24  -  mph 1019mb 68f 69f
3:18  -  mph 1019mb 68f 73f
3:12  -  mph 1019.1mb 68f 71f
3:06  -  mph 1019.1mb 68f 70f
3:00  -  mph 1019.2mb 68f -
2:54  -  mph 1019.3mb 68f -
2:48  -  mph 1019.3mb 68f 72f
2:42  -  mph 1019.4mb 68f 71f
2:36  -  mph 1019.3mb 68f 71f
2:30 8 11 mph 1019.3mb 68f 71f
2:24 6 10 mph 1019.4mb 68f 71f
2:18 6 9 mph 1019.4mb 68f 70f
2:12 5 7 mph 1019.5mb 68f 71f
2:06 6 10 mph 1019.5mb 68f 70f
2:00 7 10 mph 1019.5mb 68f 70f
1:54 7 9 mph 1019.6mb 68f 70f
1:48 6 8 mph 1019.6mb 68f 69f
1:42 6 8 mph 1019.6mb 68f 69f
1:36 6 8 mph 1019.7mb 68f 69f
1:30 5 10 mph 1019.7mb 68f 69f
1:24 7 9 mph 1019.8mb 68f 69f
1:18 7 9 mph 1019.8mb 68f 69f
1:12 8 10 mph 1019.9mb 68f 69f
1:06 7 10 mph 1020mb 68f 69f
1:00 7 9 mph 1020mb 68f 69f
12:54 5 9 mph 1020mb 68f 69f
12:48 5 8 mph 1020.1mb 68f 69f
12:42 7 9 mph 1020.1mb 67f 68f
12:36 7 9 mph 1020.2mb 67f 68f
12:30 5 9 mph 1020.2mb 67f 68f
12:24 3 7 mph 1020.2mb 67f 68f
12:18 5 9 mph 1020.3mb 67f 67f
12:12 7 9 mph 1020.4mb 67f 67f
12:06 8 11 mph 1020.4mb 67f 67f
12:00 7 9 mph 1020.4mb 66f 67f
11:54 6 8 mph 1020.5mb 66f 67f
11:48 6
mph
1020.6mb 66f 68f
11:42 3 6 mph 1020.6mb 66f 68f
11:36 3 6 mph 1020.6mb 65f 68f
11:30 3 6 mph 1020.6mb 65f 68f
11:24 2 5 mph 1020.6mb 65f 68f
11:18 3 5 mph 1020.6mb 66f 68f
11:12 2 3 mph 1020.6mb 66f 68f
11:06 2 3 mph 1020.6mb 66f 69f
11:00 2 3 mph 1020.6mb 66f 68f
10:54 2 5 mph 1020.7mb 66f 68f
10:48 2 6 mph 1020.8mb 66f 69f
10:42  -  3 mph 1020.8mb 66f 69f
10:36 2 3 mph 1020.9mb 66f 68f
10:30 2 3 mph 1020.9mb 66f 68f
10:24  -  2 mph 1021mb 66f 68f
10:18 1 2 mph 1021mb 66f 68f
10:12  -  2 mph 1021mb 66f 69f
10:06 1 2 mph 1021mb 66f 68f
10:00  -  2 mph 1021.1mb 65f 67f
9:54 1
mph
1021.1mb 65f 67f
9:48 1 2 mph 1021.2mb 65f 66f
9:42  -  1 mph 1021.3mb 65f 66f
9:36 1 2 mph 1021.3mb 65f 66f
9:30 1 2 mph 1021.4mb 65f 65f
9:24 1 2 mph 1021.3mb 65f 65f
9:18  -  2 mph 1021.4mb 65f 65f
9:12 1 2 mph 1021.4mb 65f 64f
9:06 2 3 mph 1021.4mb 65f 63f
9:00 2 7 mph 1021.4mb 65f 62f
8:54 2 5 mph 1021.4mb 65f 62f
8:48 2 5 mph 1021.4mb 65f 62f
8:42 1 3 mph 1021.5mb 65f 63f
8:36 2 5 mph 1021.5mb 65f 63f
8:30 2 7 mph 1021.5mb 65f 63f
8:24 6 7 mph 1021.5mb 65f 62f
8:18 6 7 mph 1021.5mb 65f 62f
8:12 5 7 mph 1021.5mb 65f 62f
8:06 6 8 mph 1021.4mb 65f 62f
8:00 6 7 mph 1021.4mb 65f 61f
7:54 6
mph
1021.5mb 66f 60f
7:48 2
mph
1021.5mb 66f 60f
7:42 2 3 mph 1021.5mb 66f 60f
7:36 3 5 mph 1021.5mb 66f 59f
7:30 2 5 mph 1021.5mb 66f 59f
7:24 3 5 mph 1021.5mb 65f 59f
7:18 1 3 mph 1021.5mb 66f 59f
7:12 2 5 mph 1021.5mb 66f 59f
7:06 1 3 mph 1021.6mb 66f 58f
7:00 2 5 mph 1021.6mb 66f 58f
6:54 1 3 mph 1021.5mb 66f 58f
6:48 1 2 mph 1021.6mb 66f 58f
6:42 1 3 mph 1021.6mb 66f 58f
6:36  -  2 mph 1021.6mb 66f 58f
6:30  -  3 mph 1021.6mb 66f 58f
6:24 2
mph
1021.6mb 66f 57f
6:18 1 2 mph 1021.6mb 66f 57f
6:12 2 3 mph 1021.6mb 66f 57f
6:06 2
mph
1021.5mb 66f 57f
6:00 1 3 mph 1021.5mb 66f 57f
5:54 1 3 mph 1021.6mb 66f 57f
5:48 1 3 mph 1021.7mb 66f 57f
5:42 2 3 mph 1021.6mb 66f 57f
5:36 2 3 mph 1021.6mb 66f 57f
5:30 3 5 mph 1021.6mb 66f 57f
5:24 5 6 mph 1021.6mb 66f 57f
5:18 2 5 mph 1021.6mb 66f 57f
5:12 2 5 mph 1021.6mb 66f 57f
5:06 3 5 mph 1021.7mb 66f 57f
5:00 1 3 mph 1021.7mb 66f 57f
4:54 2 3 mph 1021.7mb 66f 57f
4:48 1 5 mph 1021.7mb 66f 58f
4:42 2 5 mph 1021.7mb 66f 58f
4:36 2 3 mph 1021.7mb 66f 58f
4:30 5 6 mph 1021.7mb 66f 59f
4:24 1 6 mph 1021.7mb 66f 59f
4:18 3 6 mph 1021.7mb 66f 59f
4:12 3 6 mph 1021.7mb 66f 59f
4:06 5
mph
1021.7mb 66f 59f
4:00 2 6 mph 1021.7mb 66f 59f
3:54 3 5 mph 1021.7mb 66f 59f
3:48 1 5 mph 1021.7mb 66f 59f
3:42 2 3 mph 1021.7mb 66f 59f
3:36 1 3 mph 1021.7mb 66f 58f
3:30 2 6 mph 1021.7mb 66f 59f
3:24 2 3 mph 1021.8mb 66f 59f
3:18 3 5 mph 1021.8mb 66f 59f
3:12 2 3 mph 1021.8mb 66f 59f
3:06 5 9 mph 1021.9mb 66f 60f
3:00 8 10 mph 1021.9mb 66f 60f
2:54 8 9 mph 1021.9mb 66f 60f
2:48 7 9 mph 1021.9mb 66f 60f
2:42 8 10 mph 1021.9mb 66f 60f
2:36 8 10 mph 1021.9mb 66f 60f
2:30 9 13 mph 1021.9mb 66f 60f
2:24 10 13 mph 1021.9mb 66f 60f
2:18 10 13 mph 1021.9mb 66f 60f
2:12 11 13 mph 1022mb 66f 60f
2:06 10 13 mph 1021.9mb 66f 60f
2:00 10 13 mph 1021.9mb 66f 60f
1:54 8 14 mph 1022mb 66f 61f
1:48 10 14 mph 1022mb 66f 60f
1:42 9 13 mph 1022mb 66f 61f
1:36 11 13 mph 1022.1mb 66f 60f
1:30 11 13 mph 1022.1mb 65f 60f
1:24 9 13 mph 1022.1mb 65f 61f
1:18 10 13 mph 1022.1mb 65f 60f
1:12 10 13 mph 1022.2mb 65f 60f
1:06 11 13 mph 1022.2mb 65f 60f
1:00 11 14 mph 1022.2mb 65f 61f
12:54 11 14 mph 1022.2mb 65f 60f
12:48 13 15 mph 1022.2mb 65f 61f
12:42 11 15 mph 1022.3mb 65f 60f
12:36 11 15 mph 1022.3mb 65f 60f
12:30 11 15 mph 1022.3mb 65f -
12:24 14 17 mph 1022.3mb 65f -
12:18 13 15 mph 1022.3mb 65f 60f
12:12 13 16 mph 1022.3mb 65f 61f
12:06 11 15 mph 1022.3mb 65f 61f
12:00 11 14 mph 1022.3mb 65f 61f
Sa 06/25 11:54 8 16 mph 1022.4mb 65f 61f
11:48 13 16 mph 1022.3mb 65f -
11:42 13 15 mph 1022.4mb 65f -
11:36 11 15 mph 1022.3mb 65f -
11:30 13 15 mph 1022.3mb 65f 60f
11:24 13 15 mph 1022.3mb 65f 60f
11:18 13 16 mph 1022.4mb 65f 60f
11:12 14 17 mph 1022.4mb 65f 60f
11:06 14 17 mph 1022.4mb 65f 60f
11:00  -  mph 1022.4mb 66f 60f
10:54  -  mph 1022.4mb 66f 60f
10:48  -  mph 1022.4mb 66f 60f
10:42  -  mph 1022.4mb 66f 60f
10:36  -  mph 1022.4mb 66f 61f
10:30 15 18 mph 1022.4mb 65f 61f
10:24 14 17 mph 1022.4mb 65f 61f
10:18 15 17 mph 1022.4mb 65f 61f
10:12 14 17 mph 1022.4mb 65f 61f
10:06 13 16 mph 1022.4mb 65f 62f
10:00 14 16 mph 1022.4mb 65f 62f
9:54 14 18 mph 1022.4mb 65f 62f
9:48 14 17 mph 1022.4mb 65f 62f
9:42 15 18 mph 1022.3mb 65f 62f
9:36 11 15 mph 1022.3mb 65f 62f
9:30 15 18 mph 1022.3mb 65f 62f
9:24 13 17 mph 1022.2mb 65f 62f
9:18 15 17 mph 1022.2mb 65f 62f
9:12 16 20 mph 1022.2mb 65f 62f
9:06 13 14 mph 1022.2mb 64f 62f
9:00 13 17 mph 1022.2mb 64f 62f
8:54 13 17 mph 1022.1mb 64f 62f
8:48  -  mph 1022.1mb 64f 63f
8:42  -  mph 1022.1mb 64f 63f
8:36  -  mph 1022mb 64f 63f
8:30 13 17 mph 1022mb 64f 63f
8:24 13 17 mph 1021.9mb 64f 63f
8:18 14 21 mph 1021.9mb 64f 63f
8:12 14 21 mph 1021.9mb 64f 63f
8:06 16 23 mph 1021.7mb 65f 63f
8:00  -  mph 1021.6mb 65f 63f
7:54  -  mph 1021.5mb 66f 63f
7:48  -  mph 1021.5mb 66f -
7:42  -  mph 1021.5mb 66f -
7:36  -  mph 1021.5mb 66f -
7:30  -  mph 1021.5mb 66f 64f
7:24  -  mph 1021.6mb 66f 64f
7:18 20 24 mph - 67f 64f
7:12 17 22 mph - 67f 64f
7:06 18 24 mph - 66f 64f
7:00  -  mph 1021.6mb 66f 65f
6:54  -  mph 1021.6mb 66f 65f
6:48  -  mph 1021.6mb 65f -
6:42  -  mph 1021.7mb 65f -
6:36  -  mph 1021.8mb 65f -
6:30  -  mph 1021.8mb 65f 64f
6:24  -  mph 1021.8mb 65f 65f
6:18  -  mph 1021.9mb 65f 65f
6:12  -  mph 1022mb 65f 65f
6:06  -  mph 1022mb 65f 65f
6:00  -  mph 1022.1mb 65f -
5:54  -  mph 1022.1mb 65f -
5:48 18 22 mph 1022.2mb 65f -
5:42 18 22 mph 1022.3mb 65f -
5:36 18 21 mph 1022.4mb 66f -
5:30 17 21 mph - - -
5:24 17 21 mph - - -
5:18  -  mph 1022.5mb 67f 66f
5:12  -  mph 1022.6mb 67f 66f
5:06  -  mph 1022.6mb 67f 67f
5:00  -  mph - 67f 67f
4:54  -  mph - 67f 67f
4:48 10 14 mph 1022.7mb 67f -
4:42 13 15 mph 1022.7mb 67f -
4:36 7 9 mph 1022.8mb 67f -
4:30  -  mph 1022.8mb 67f -
4:24  -  mph 1022.8mb 67f -
4:18  -  mph 1022.9mb 67f 70f
4:12  -  mph 1022.9mb 67f 70f
4:06  -  mph 1023mb 67f 69f
4:00  -  mph 1023mb 67f -
3:54  -  mph 1023mb 67f -
3:48  -  mph - 67f -
3:42  -  mph - 67f -
3:36  -  mph - 67f -
3:30  -  mph 1023.2mb 67f -
3:24  -  mph 1023.3mb 67f -
3:18  -  mph 1023.4mb 67f 68f
3:12  -  mph 1023.4mb 67f 67f
3:06  -  mph 1023.4mb 67f 67f
3:00  -  mph - 67f -
2:54  -  mph - 66f -
2:48  -  mph 1023.5mb 67f 66f
2:42  -  mph 1023.6mb 67f 66f
2:36  -  mph 1023.7mb 67f 66f
2:30 7 9 mph 1023.8mb 67f 65f
2:24 7 9 mph 1023.8mb 67f 65f
2:18 6 9 mph 1023.8mb 66f 66f
2:12 5 7 mph 1023.9mb 66f 66f
2:06 6 8 mph 1024mb 66f 66f
2:00 6 8 mph 1024mb 66f 65f
1:54 6 8 mph 1024mb 66f 65f
1:48 5 7 mph 1024.1mb 66f 65f
1:42 3 7 mph 1024.1mb 66f 65f
1:36 5 7 mph 1024.2mb 66f 65f
1:30 6 7 mph 1024.2mb 66f 64f
1:24 5 6 mph 1024.2mb 66f 65f
1:18 3 6 mph 1024.2mb 66f 65f
1:12 5 7 mph 1024.3mb 66f 64f
1:06 6 7 mph 1024.3mb 66f 64f
1:00 5 7 mph 1024.4mb 67f 64f
12:54 5 7 mph 1024.4mb 67f 64f
12:48 5 6 mph 1024.4mb 66f 63f
12:42 5 6 mph 1024.4mb 66f 63f
12:36 3 6 mph 1024.4mb 66f 63f
12:30 5 6 mph 1024.5mb 66f 63f
12:24 5 6 mph 1024.5mb 66f 62f
12:18 3 5 mph 1024.5mb 66f 62f
12:12 3 6 mph 1024.5mb 66f 62f
12:06 3 6 mph 1024.5mb 66f 62f
12:00 2 5 mph 1024.5mb 65f 62f
11:54  -  3 mph 1024.6mb 65f 63f
11:48 2 3 mph 1024.6mb 65f 63f
11:42 2 5 mph 1024.6mb 65f 62f
11:36 3 5 mph 1024.6mb 65f 62f
11:30 2 3 mph 1024.7mb 65f 62f
11:24  -  2 mph 1024.7mb 65f 63f
11:18 2
mph
1024.7mb 64f 63f
11:12 2 3 mph 1024.8mb 65f 62f
11:06 2 3 mph 1024.8mb 65f 62f
11:00 2 3 mph - 64f 62f
10:54  -  1 mph - 64f 64f
10:48 1 2 mph 1024.8mb 65f 62f
10:42 1 2 mph 1024.8mb 65f 62f
10:36 1 3 mph 1024.9mb 64f 62f
10:30 2
mph
1024.9mb 64f 62f
10:24 1 2 mph 1024.9mb 64f 61f
10:18 2 5 mph 1025mb 64f 61f
10:12 2 5 mph 1025.1mb 64f 61f
10:06 2 5 mph 1025.1mb 64f 61f
10:00  -  mph 1025.1mb 64f 61f
9:54  -  mph 1025.2mb 64f 61f
9:48 3
mph
1025.2mb 64f 60f
9:42  -  2 mph 1025.2mb 64f 61f
9:36 2 3 mph 1025.1mb 64f 60f
9:30 1 3 mph 1025.1mb 64f 61f
9:24 5
mph
1025.1mb 64f 60f
9:18 2 3 mph 1025.2mb 64f 59f
9:12 3 5 mph 1025.2mb 64f 59f
9:06 5 7 mph 1025.2mb 64f 59f
9:00 6 7 mph 1025.2mb 64f 58f
8:54 6 8 mph 1025.2mb 64f 59f
8:48 6 8 mph 1025.1mb 64f 58f
8:42 6 7 mph 1025mb 64f 58f
8:36 6 8 mph 1025.1mb 64f 58f
8:30 7 8 mph 1025.1mb 64f 58f
8:24 5 6 mph 1025.1mb 64f 58f
8:18 3 6 mph 1025.2mb 64f 58f
8:12 5 7 mph 1025.2mb 64f 58f
8:06 6
mph
1025.3mb 64f 58f
8:00 6 7 mph 1025.2mb 64f 58f
7:54 6 8 mph 1025.2mb 64f 58f
7:48 6 8 mph 1025.2mb 64f 58f
7:42 6 7 mph 1025.2mb 64f 58f
7:36 3 8 mph 1025.2mb 64f 58f
7:30 6 8 mph 1025.1mb 64f 58f
7:24 5 9 mph 1025.1mb 64f 58f
7:18 5 7 mph 1025.1mb 64f 58f
7:12 2 7 mph 1025.1mb 64f 58f
7:06 5 7 mph 1025.2mb 64f 58f
7:00 5 7 mph 1025.2mb 65f 58f
6:54 6 7 mph 1025.4mb 65f 58f
6:48 5 7 mph 1025.4mb 65f 58f
6:42 6 7 mph 1025.5mb 65f 58f
6:36 6 8 mph 1025.4mb 65f 58f
6:30 2 5 mph 1025.3mb 65f 58f
6:24 1 2 mph 1025.2mb 65f 57f
6:18 2 5 mph 1025.2mb 65f 57f
6:12 3 6 mph 1025.3mb 65f 57f
6:06  -  2 mph 1025.2mb 65f 58f
6:00 2 3 mph 1025.2mb 65f 58f
5:54 2 3 mph 1025.2mb 65f 58f
5:48  -  5 mph 1025.1mb 65f 58f
5:42 3 8 mph 1025mb 65f 58f
5:36 5 7 mph 1025mb 65f 58f
5:30 2 7 mph 1025mb 65f 58f
5:24 6 7 mph 1025.1mb 65f 58f
5:18 3 7 mph 1025.1mb 65f 58f
5:12 1 2 mph 1025.1mb 65f 57f
5:06 1 3 mph 1025.1mb 65f 57f
5:00 1 2 mph 1025.1mb 65f 57f
4:54 1
mph
1025.1mb 65f 57f
4:48  -  2 mph 1025mb 65f 57f
4:42 1 5 mph 1025.1mb 65f 57f
4:36 3 5 mph 1025.1mb 65f 57f
4:30 2 3 mph 1025.2mb 65f 57f
4:24 2 5 mph 1025.2mb 65f 57f
4:18 2 3 mph 1025.2mb 65f 57f
4:12 1 5 mph 1025.3mb 65f 57f
4:06 2 3 mph 1025.3mb 65f 57f
4:00 2 3 mph 1025.3mb 65f 57f
3:54 2 5 mph 1025.4mb 65f 57f
3:48 2 5 mph 1025.4mb 65f 57f
3:42 2 5 mph 1025.5mb 65f 57f
3:36 3 5 mph 1025.6mb 65f 57f
3:30 1 2 mph 1025.6mb 65f 57f
3:24 1 3 mph 1025.7mb 65f 57f
3:18 1 3 mph 1025.6mb 65f 57f
3:12 1 3 mph 1025.7mb 65f 57f
3:06 1 2 mph 1025.7mb 65f 57f
3:00 2 5 mph 1025.7mb 65f 57f
2:54 1 3 mph 1025.7mb 65f 58f
2:48 1 3 mph 1025.7mb 65f 58f
2:42 2 6 mph 1025.6mb 65f 58f
2:36 3 6 mph 1025.7mb 65f 58f
2:30 1 5 mph 1025.7mb 65f 58f
2:24  -  3 mph 1025.8mb 65f 57f
2:18 2 5 mph 1025.8mb 65f 58f
2:12 2
mph
1025.8mb 65f 57f
2:06 1 2 mph 1025.8mb 65f 57f
2:00 2 3 mph 1025.9mb 65f 57f
1:54 1 3 mph 1026mb 65f 58f
1:48 2
mph
1026.1mb 65f 57f
1:42 1
mph
1026.1mb 65f 57f
1:36  -  1 mph 1026.1mb 65f 57f
1:30  -  1 mph 1026.1mb 65f 57f
1:24  -  1 mph 1026.1mb 65f 57f
1:18 1 2 mph 1026.2mb 65f 57f
1:12 1 2 mph 1026.3mb 65f 57f
1:06 2
mph
1026.3mb 65f 57f
1:00 1 2 mph 1026.3mb 65f 57f
12:54 1
mph
1026.3mb 65f 58f
12:48  -  5 mph 1026.3mb 65f 58f
12:42 3 6 mph 1026.3mb 65f 58f
12:36 5 6 mph 1026.4mb 65f 58f
12:30 5 7 mph 1026.4mb 65f 58f
12:24 6 8 mph 1026.4mb 65f 58f
12:18 6 8 mph 1026.4mb 65f 58f
12:12 8 10 mph 1026.4mb 65f 58f
12:06 8 11 mph 1026.4mb 65f 58f
12:00 7 9 mph 1026.4mb 65f 58f
Fr 06/24 11:54 1 3 mph 1026.4mb 65f 58f
11:48 2 3 mph 1026.3mb 65f 59f
11:42  -  2 mph 1026.4mb 65f 58f
11:36 1 3 mph 1026.4mb 65f 58f
11:30 3 5 mph 1026.5mb 64f 59f
11:24 1 6 mph 1026.5mb 64f 59f
11:18  -  mph 1026.4mb 64f 59f
11:12  -  mph 1026.4mb 64f 59f
11:06  -  mph 1026.4mb 64f 59f
11:00 5 6 mph 1026.4mb 64f 59f
10:54 5 8 mph 1026.5mb 64f 59f
10:48  -  mph 1026.5mb 64f 59f
10:42  -  mph 1026.5mb 64f 59f
10:36  -  mph 1026.5mb 64f 59f
10:30 3 7 mph 1026.5mb 64f 59f
10:24 3 7 mph 1026.5mb 64f 59f
10:18 1 5 mph 1026.5mb 64f 60f
10:12 3 7 mph 1026.5mb 64f 59f
10:06 3 6 mph 1026.4mb 64f 60f
10:00 5 7 mph 1026.4mb 64f 59f
9:54 5 7 mph 1026.4mb 64f 59f
9:48 6 7 mph 1026.4mb 64f 59f
9:42 6 8 mph 1026.4mb 64f 59f
9:36 6 7 mph 1026.4mb 64f 59f
9:30 5 8 mph 1026.4mb 64f 60f
9:24 6 8 mph 1026.4mb 64f 60f
9:18  -  7 mph 1026.4mb 64f 60f
9:12 3 6 mph 1026.3mb 64f 60f
9:06 5 8 mph 1026.4mb 64f 60f
9:00 3 8 mph 1026.4mb 64f 60f
8:54 3 7 mph 1026.4mb 64f 60f
8:48  -  mph 1026.5mb 64f -
8:42  -  mph 1026.5mb 64f -
8:36  -  mph 1026.5mb 64f -
8:30  -  5 mph 1026.5mb 64f 60f
8:24  -  7 mph 1026.5mb 64f 60f
8:18 2 6 mph 1026.5mb 64f 60f
8:12 3 6 mph 1026.6mb 64f 60f
8:06 1 3 mph 1026.5mb 64f 60f
8:00  -  mph 1026.5mb 64f -
7:54  -  mph 1026.5mb 64f -
7:48 2 8 mph 1026.5mb 64f -
7:42  -  7 mph 1026.5mb 64f -
7:36 2 5 mph 1026.4mb 64f -
7:30  -  mph 1026.3mb 64f -
7:24  -  mph 1026.4mb 64f -
7:18  -  mph - 65f 60f
7:12  -  mph - 65f 60f
7:06  -  mph - 65f 60f
7:00 8 10 mph - 65f -
6:54 6 8 mph - 65f -
6:48  -  mph 1026.4mb 65f -
6:42  -  mph 1026.4mb 65f -
6:36  -  mph 1026.5mb 64f -
6:30  -  mph 1026.5mb 64f 60f
6:24  -  mph 1026.6mb 64f 60f
6:18  -  mph 1026.5mb 64f 60f
6:12  -  mph 1026.5mb 64f 60f
6:06  -  mph 1026.5mb 64f 61f
6:00  -  mph 1026.5mb 64f 61f
5:54  -  mph 1026.5mb 64f 61f
5:48  -  mph 1026.5mb 64f -
5:42  -  mph 1026.4mb 64f -
5:36  -  mph 1026.4mb 64f -
5:30  -  mph 1026.4mb 64f -
5:24  -  mph 1026.5mb 64f -
5:18  -  mph 1026.5mb 64f 61f
5:12  -  mph 1026.5mb 64f 62f
5:06  -  mph 1026.5mb 65f 61f
5:00  -  mph 1026.5mb 65f -
4:54  -  mph 1026.5mb 65f -
4:48  -  mph 1026.5mb 65f -
4:42  -  mph 1026.4mb 65f -
4:36  -  mph 1026.4mb 65f -
4:30  -  mph 1026.5mb - 61f
4:24  -  mph 1026.5mb - 61f
4:18  -  mph 1026.5mb 65f 62f
4:12  -  mph 1026.5mb 65f 62f
4:06  -  mph 1026.4mb 65f 62f
4:00  -  mph 1026.4mb 65f -
3:54  -  mph 1026.4mb 65f -
3:48  -  mph - 65f -
3:42  -  mph - 65f -
3:36  -  mph - 65f -
3:30  -  mph 1026.5mb 65f -
3:24  -  mph 1026.5mb 65f -
3:18  -  mph 1026.5mb 65f 60f
3:12  -  mph 1026.4mb 65f 59f
3:06  -  mph 1026.4mb 65f 59f
3:00 13 15 mph - - -
2:54 11 14 mph - - -
2:48  -  mph - 65f 59f
2:42  -  mph - 65f 59f
2:36  -  mph - 65f 58f
2:30 10 14 mph 1026.2mb 65f 57f
2:24 13 16 mph 1026.2mb 65f 57f
2:18 16 20 mph 1026.2mb 65f 56f
2:12 15 20 mph 1026.1mb 65f 57f
2:06 14 16 mph 1026mb 65f 59f
2:00 11 15 mph 1025.9mb 65f 59f
1:54 13 15 mph 1025.8mb 65f 59f
1:48 11 15 mph 1025.7mb 65f 59f
1:42 11 15 mph 1025.7mb 65f 58f
1:36 13 15 mph 1025.6mb 65f 58f
1:30 11 14 mph 1025.6mb 65f 58f
1:24 10 13 mph 1025.5mb 65f 57f
1:18 10 13 mph 1025.6mb 65f 57f
1:12 9 13 mph 1025.5mb 65f 57f
1:06 8 13 mph 1025.4mb 65f 57f
1:00 10 14 mph 1025.4mb 65f 57f
12:54 11 15 mph 1025.4mb 65f 57f
12:48 11 15 mph 1025.3mb 65f 57f
12:42 14 17 mph 1025.3mb 65f 56f
12:36 15 21 mph 1025.3mb 65f 56f
12:30 20 22 mph 1025.3mb 65f -
12:24 14 17 mph 1025.1mb 65f -
12:18 14 21 mph 1025.1mb 65f 57f
12:12 17 21 mph 1025.1mb 65f 58f
12:06 11 17 mph 1024.9mb 65f 59f
12:00 14 18 mph 1024.9mb 64f 58f
11:54 3 11 mph 1024.8mb 64f 58f
11:48 11 16 mph 1024.8mb 64f 58f
11:42 9 14 mph 1024.7mb 64f 58f
11:36 11 17 mph 1024.7mb 64f 58f
11:30 13 17 mph 1024.6mb 64f 57f
11:24 10 15 mph 1024.5mb 64f 57f
11:18 6 14 mph 1024.5mb 64f 57f
11:12 13 15 mph 1024.5mb 64f 57f
11:06 11 16 mph 1024.5mb 64f 58f
11:00 10 16 mph 1024.4mb 64f 58f
10:54 13 16 mph 1024.3mb 64f 58f
10:48 9 13 mph 1024.3mb 64f 58f
10:42 9 11 mph 1024.2mb 64f 57f
10:36 8 11 mph 1024.1mb 64f 57f
10:30 6 9 mph 1024.1mb 64f 57f
10:24 8 13 mph 1024.2mb 64f 57f
10:18 8 13 mph 1024.1mb 64f 57f
10:12 8 10 mph 1024mb 64f 57f
10:06 6 13 mph 1024.1mb 64f 57f
10:00 8 14 mph 1024mb 64f 56f
9:54 10 15 mph 1024mb 64f 56f
9:48 10 17 mph 1024mb 64f 56f
9:42 13 17 mph 1023.8mb 64f 58f
9:36 9 14 mph 1023.7mb 64f 58f
9:30 7 14 mph 1023.6mb 64f 58f
9:24 8 15 mph 1023.5mb 64f 58f
9:18 10 14 mph 1023.5mb 64f 58f
9:12 9 11 mph 1023.5mb 64f 58f
9:06 11 14 mph 1023.5mb 64f 58f
9:00 10 13 mph 1023.4mb 64f 58f
8:54 9 14 mph 1023.4mb 64f 58f
8:48 9 14 mph 1023.3mb 64f 57f
8:42 10 17 mph 1023.3mb 64f 57f
8:36 10 14 mph 1023.2mb 64f 57f
8:30 11 15 mph 1023.2mb 64f 58f
8:24 10 15 mph 1023.1mb 64f 58f
8:18 10 13 mph 1023.1mb 64f 58f
8:12 10 15 mph 1023mb 64f 58f
8:06 10 14 mph 1023mb 64f 58f
8:00 8 11 mph 1023mb 64f 58f
7:54 9 10 mph 1023mb 64f 57f
7:48 8 13 mph 1022.9mb 64f 57f
7:42 8 10 mph 1022.9mb 64f 57f
7:36 9 11 mph 1022.8mb 64f 57f
7:30 9 11 mph 1022.7mb 64f 57f
7:24 7 11 mph 1022.7mb 64f 57f
7:18 8 10 mph 1022.7mb 63f 57f
7:12 8 11 mph 1022.6mb 63f 57f
7:06 9 11 mph 1022.6mb 64f 57f
7:00 7 10 mph 1022.6mb 64f 57f
6:54 8 10 mph 1022.5mb 64f 57f
6:48 6 8 mph 1022.5mb 64f 56f
6:42 6 7 mph 1022.4mb 64f 56f
6:36 7 9 mph 1022.4mb 64f 56f
6:30 6 8 mph 1022.3mb 64f 56f
6:24 6 8 mph 1022.3mb 64f 56f
6:18 6 7 mph 1022.3mb 64f 56f
6:12 6 7 mph 1022.2mb 64f 56f
6:06 5 6 mph 1022.1mb 64f 56f
6:00 3 6 mph 1022.1mb 64f 56f
5:54 3 6 mph 1022.1mb 64f 56f
5:48 6 7 mph 1022.1mb 64f 56f
5:42 5 6 mph 1022.1mb 65f 56f
5:36 6 7 mph 1022mb 65f 56f
5:30 5 8 mph 1022mb 65f 56f
5:24 6 8 mph 1021.9mb 65f 56f
5:18 7 8 mph 1021.9mb 65f 56f
5:12 6 8 mph 1021.8mb 65f 56f
5:06 6 8 mph 1021.8mb 65f 56f
5:00 6 8 mph 1021.8mb 65f 56f
4:54 6 8 mph 1021.8mb 65f 56f
4:48 6 8 mph 1021.7mb 65f 56f
4:42 7 8 mph 1021.7mb 65f 56f
4:36 6 8 mph 1021.7mb 65f 56f
4:30 7 9 mph 1021.6mb 65f 56f
4:24 6 8 mph 1021.6mb 65f 56f
4:18 6 8 mph 1021.5mb 65f 56f
4:12 6 8 mph 1021.4mb 65f 56f
4:06 6 7 mph 1021.4mb 65f 56f
4:00 5 7 mph 1021.3mb 65f 56f
3:54 6 8 mph 1021.3mb 65f 56f
3:48 6 7 mph 1021.3mb 65f 56f
3:42 6 8 mph 1021.3mb 65f 56f
3:36 6 7 mph 1021.3mb 65f 55f
3:30 5 9 mph 1021.3mb 65f 56f
3:24 6 7 mph 1021.3mb 65f 56f
3:18 6 7 mph 1021.3mb 65f 56f
3:12 6 7 mph 1021.2mb 65f 56f
3:06 6 9 mph 1021.2mb 65f 56f
3:00 7 9 mph 1021.2mb 65f 56f
2:54 7 11 mph 1021.2mb 65f 56f
2:48 6 8 mph 1021.2mb 65f 56f
2:42 6 9 mph 1021.1mb 65f 56f
2:36 7 9 mph 1021.1mb 65f 56f
2:30 6 8 mph 1021.1mb 65f 56f
2:24 7 9 mph 1021.1mb 65f 55f
2:18 7 9 mph 1021mb 65f 55f
2:12 7 9 mph 1021mb 65f 55f
2:06 7 10 mph 1020.9mb 65f 56f
2:00 7 9 mph 1020.9mb 65f 56f
1:54 6 10 mph 1020.9mb 65f 56f
1:48 8 11 mph 1020.8mb 65f 56f
1:42 9 10 mph 1020.8mb 65f 56f
1:36 8 10 mph 1020.8mb 65f 56f
1:30 9 10 mph 1020.8mb 65f 56f
1:24 7 9 mph 1020.8mb 65f 56f
1:18 8 11 mph 1020.8mb 65f 56f
1:12 7 11 mph 1020.8mb 65f 55f
1:06 7 9 mph 1020.8mb 65f 55f
1:00 6 9 mph 1020.8mb 65f 55f
12:54 6 8 mph 1020.8mb 65f 55f
12:48 6 7 mph 1020.8mb 65f 55f
12:42 3 6 mph 1020.8mb 65f 54f
12:36 3 5 mph 1020.8mb 65f 54f
12:30 5 6 mph 1020.8mb 65f 54f
12:24 5 6 mph 1020.9mb 65f 54f
12:18 6 7 mph 1020.9mb 65f 54f
12:12 5 6 mph 1020.8mb 65f 54f
12:06 5 6 mph 1020.8mb 65f 53f
12:00 2 3 mph 1020.8mb 65f 54f
Do 06/23 11:54 3 6 mph 1020.8mb 65f 54f
11:48 2 8 mph 1020.8mb 65f 55f
11:42 2 7 mph 1020.8mb 65f 55f
11:36 7 20 mph 1020.9mb 65f 54f
11:30 16 22 mph 1020.9mb 65f 55f
11:24 8 13 mph 1020.8mb 65f 56f
11:18  -  mph 1020.6mb 65f 56f
11:12  -  mph 1020.5mb 65f 56f
11:06  -  mph 1020.5mb 65f 57f
11:00  -  mph 1020.5mb 65f 57f
10:54  -  mph 1020.5mb 65f 56f
10:48  -  mph 1020.5mb 65f 56f
10:42  -  mph 1020.4mb 65f 56f
10:36  -  mph 1020.4mb 65f 57f
10:30 5 6 mph 1020.4mb 65f 57f
10:24 2 6 mph 1020.4mb 64f 57f
10:18 5 7 mph 1020.4mb 64f 57f
10:12 3 9 mph 1020.4mb 64f 57f
10:06 5 6 mph 1020.4mb 64f 57f
10:00 5 9 mph 1020.4mb 64f 57f
9:54 7 10 mph 1020.3mb 64f 58f
9:48 9 10 mph 1020.3mb 64f 58f
9:42 7 9 mph 1020.2mb 64f 58f
9:36 9 11 mph 1020.2mb 64f 58f
9:30 7 10 mph 1020.1mb 64f 58f
9:24 8 11 mph 1020.1mb 64f 58f
9:18 9 13 mph 1020.1mb 64f 58f
9:12 9 13 mph 1020.1mb 64f 58f
9:06 8 11 mph 1020.1mb 65f 58f
9:00 9 13 mph 1020mb 65f 57f
8:54 13 16 mph 1020mb 65f 57f
8:48  -  mph 1020mb 65f -
8:42  -  mph 1019.9mb 65f -
8:36  -  mph 1019.9mb 65f -
8:30 8 14 mph 1020mb 65f 56f
8:24 10 14 mph 1020mb 65f 57f
8:18 10 16 mph 1019.9mb 64f 58f
8:12 11 14 mph 1019.8mb 64f 59f
8:06 11 13 mph 1019.8mb 64f 59f
8:00  -  mph 1019.8mb - -
7:54  -  mph 1019.8mb - -
7:48  -  mph 1019.8mb 64f -
7:42  -  mph 1019.8mb 64f -
7:36  -  mph 1019.7mb 64f -
7:30 10 14 mph 1019.7mb - -
7:24 10 14 mph 1019.6mb - -
7:18 10 15 mph 1019.7mb 64f -
7:12 11 14 mph 1019.6mb 64f -
7:06 11 14 mph 1019.5mb 64f -
7:00  -  mph 1019.4mb 64f -
6:54  -  mph 1019.4mb 64f -
6:48  -  mph 1019.4mb 64f -
6:42  -  mph 1019.3mb 64f -
6:36  -  mph 1019.3mb 64f -
6:30  -  mph 1019.3mb 65f -
6:24  -  mph 1019.3mb 65f -
6:18  -  mph 1019.3mb 65f 59f
6:12  -  mph 1019.3mb 65f 58f
6:06  -  mph 1019.3mb 65f 59f
6:00  -  mph 1019.2mb 65f -
5:54  -  mph 1019.2mb 65f -
5:48  -  mph 1019.1mb 64f -
5:42  -  mph 1019.1mb 64f -
5:36  -  mph 1019.1mb 64f -
5:30  -  mph 1019.1mb 64f -
5:24  -  mph 1019.1mb 64f -
5:18  -  mph 1019.1mb 64f 58f
5:12  -  mph 1019mb 64f 59f
5:06  -  mph 1019mb 64f 59f
5:00  -  mph 1019mb - -
4:54  -  mph 1018.9mb - -
4:48  -  mph 1018.8mb - -
4:42  -  mph 1018.8mb - -
4:36  -  mph 1018.8mb - -
4:30  -  mph 1018.9mb 64f -
4:24  -  mph 1018.9mb 65f -
4:18  -  mph 1018.9mb 65f 58f
4:12  -  mph 1018.9mb 65f 58f
4:06  -  mph 1018.9mb 65f 59f
4:00  -  mph 1018.9mb 65f -
3:54  -  mph 1018.8mb 65f -
3:48  -  mph 1018.9mb - -
3:42  -  mph 1018.8mb - -
3:36  -  mph 1018.9mb - -
3:30  -  mph 1018.8mb 65f -
3:24  -  mph 1018.8mb 65f -
3:18  -  mph 1018.9mb 65f 58f
3:12  -  mph 1018.8mb 65f 58f
3:06  -  mph 1018.8mb 65f 58f
3:00  -  mph 1018.8mb 65f -
2:54  -  mph 1018.8mb 65f -
2:48  -  mph 1018.8mb 65f 58f
2:42  -  mph 1018.6mb 65f 58f
2:36  -  mph 1018.5mb 65f 58f
2:30 9 13 mph 1018.6mb 65f 58f
2:24 8 11 mph 1018.4mb 65f 58f
2:18 8 10 mph 1018.5mb 65f 58f
2:12 7 9 mph 1018.4mb 65f 58f
2:06 8 10 mph 1018.3mb 65f 58f
2:00 7 9 mph 1018.3mb 65f 58f
1:54 7 9 mph 1018.3mb 65f 57f
1:48 8 9 mph 1018.2mb 65f 57f
1:42 7 10 mph 1018.2mb 65f 57f
1:36 7 10 mph 1018.2mb 65f 57f
1:30 8 11 mph 1018.2mb 65f 57f
1:24 7 10 mph 1018.2mb 65f 57f
1:18 8 10 mph 1018.2mb 65f 57f